Página principal
METAR-TAF:

METAR-TAF

Aeroportos :

Kilimanjaro, Tanzânia

latitude: 03-25S, longitude: 037-04E, altura: 891 m

Observação actual do tempo

O boletim foi feito há 4 horas e 4 minutos, às 19:00 UTC
Vento calmo
Temperatura 17°C
Humidade 72%
Pressão 1023 hPa
Visibilidade 10 km ou mais
Poucas nuvensa uma altura de 2200 ft

METAR: HTKJ 221900Z 00000KT 9999 FEW022 17/12 Q1023 NOSIG

Hora: 02:04 (23:04 UTC)

Previsão

O boletim foi feito há 6 horas e 4 minutos, às 17:00 UTC
Previsão válida de 22 às 18 UTC a 23 às 18 UTC
Vento 5 kt de este
Visibilidade 10 km ou mais
Nuvens dispersasa uma altura de 2500 ft
Tornando-se
de 22 às 23 UTC a 23 às 02 UTC
Nuvens fragmentadasa uma altura de 2200 ft

TAF: HTKJ 221700Z 2218/2318 09005KT 9999 SCT025 BECMG 2223/2302 BKN022

Observações e previsões do tempo de mais de 4000 aeroportos (mensagens METAR e TAF).

As estações disponíveis são os pontos amarelos e vermelhos sobre o mapa.

Mova o rato sobre o mapa para ver o nome da estação.

Depois clique no ponto para visualizar as observações e previsões meteorológicas.

Para alterar o mapa : clique nos botões verdes com uma cruz preta para aumentar o zoom; no botão verde com uma pitada de zoom; ou nas setas verdes para mapas adjacentes.


METAR-TAF: